首页
METAR-TAF:

METAR-TAF

机场 :

埃門, 瑞士

纬度: 47-05-32N, 经度: 8-18-16E, 海拔: 426米

当前天气观测

该预报发布于36分钟前的11:50 UTC
静风
温度 1°C
湿度 100%
气压 1020 hPa
能見度: 0350
阴天层高于200英尺

METAR: LSME 261150Z AUTO 00000KT 0350NDV R04/1500D R22/0600N FG OVC002 01/01 Q1020 RMK

时间: 13:26 (12:26 UTC)


TAF: 丢失

超过4000个机场的气象观测和天气预报(METAR&TAF报告)。

可查询的气象台以黄色和红色小点在地图上表示。

将鼠标移到小点上方,可查看气象台名称。

然后点击查看天气观测和预报。

如需切换地图:点击带黑十字的绿色按钮放大地图;点击带横线的绿色按钮缩小地图;或者点击绿色箭头查看邻近地区的地图。


METAR-TAF: